createdAt,value
2022-10-30T00:01:07.003Z,16.30
2022-10-30T00:03:35.476Z,16.30
2022-10-30T00:06:06.118Z,16.30
2022-10-30T00:08:34.752Z,16.30
2022-10-30T00:11:09.740Z,16.30
2022-10-30T00:13:38.450Z,16.30
2022-10-30T00:16:09.121Z,16.30
2022-10-30T00:18:38.403Z,16.30
2022-10-30T00:21:08.197Z,16.30
2022-10-30T00:23:36.618Z,16.30
2022-10-30T00:26:05.858Z,16.30
2022-10-30T00:28:35.662Z,16.20
2022-10-30T00:31:05.681Z,16.20
2022-10-30T00:33:34.388Z,16.20
2022-10-30T00:36:03.065Z,16.20
2022-10-30T00:38:31.535Z,16.20
2022-10-30T00:40:59.881Z,16.20
2022-10-30T00:43:31.016Z,16.20
2022-10-30T00:46:06.694Z,16.20
2022-10-30T00:48:35.828Z,16.20
2022-10-30T00:51:06.429Z,16.20
2022-10-30T00:53:35.158Z,16.20
2022-10-30T00:56:08.080Z,16.20
2022-10-30T00:58:40.344Z,16.20
2022-10-30T01:01:14.517Z,16.10
2022-10-30T01:03:43.376Z,16.20
2022-10-30T02:05:49.614Z,16.00
2022-10-30T02:08:20.964Z,16.00
2022-10-30T02:10:53.750Z,16.00
2022-10-30T02:13:35.829Z,16.00
2022-10-30T02:16:04.902Z,16.00
2022-10-30T02:18:33.655Z,16.00
2022-10-30T02:21:04.655Z,16.00
2022-10-30T02:23:33.697Z,16.00
2022-10-30T02:26:02.317Z,16.00
2022-10-30T02:28:30.967Z,16.00
2022-10-30T02:30:59.565Z,16.00
2022-10-30T02:33:28.102Z,15.90
2022-10-30T02:35:56.742Z,15.90
2022-10-30T02:38:26.868Z,15.90
2022-10-30T02:40:58.159Z,15.90
2022-10-30T02:43:27.024Z,15.90
2022-10-30T02:45:55.845Z,15.90
2022-10-30T02:48:26.387Z,15.90
2022-10-30T02:50:59.926Z,15.90
2022-10-30T02:53:32.443Z,15.90
2022-10-30T02:56:05.020Z,15.90
2022-10-30T02:58:36.632Z,15.90
2022-10-30T03:01:10.586Z,15.90
2022-10-30T03:03:39.937Z,15.90
2022-10-30T04:15:04.127Z,14.40
2022-10-30T04:17:33.002Z,14.40
2022-10-30T04:20:06.126Z,14.40
2022-10-30T04:22:34.702Z,14.40
2022-10-30T04:25:03.276Z,14.40
2022-10-30T04:27:33.624Z,14.30
2022-10-30T04:30:03.949Z,14.30
2022-10-30T04:32:33.105Z,14.30
2022-10-30T04:35:04.977Z,14.30
2022-10-30T04:37:39.361Z,14.30
2022-10-30T04:40:09.427Z,14.30
2022-10-30T04:42:49.186Z,14.20
2022-10-30T04:45:20.667Z,14.30
2022-10-30T04:47:55.461Z,14.20
2022-10-30T04:50:29.990Z,14.20
2022-10-30T04:53:02.780Z,14.20
2022-10-30T04:55:35.661Z,14.20
2022-10-30T04:58:04.878Z,14.20
2022-10-30T05:00:39.468Z,14.20
2022-10-30T05:03:21.343Z,14.20
2022-10-30T05:05:56.970Z,14.20
2022-10-30T05:08:25.509Z,14.20
2022-10-30T05:10:55.012Z,14.20
2022-10-30T05:13:23.966Z,14.20
2022-10-30T05:15:55.476Z,14.20
2022-10-30T05:18:24.518Z,14.20
2022-10-30T05:20:52.832Z,14.20
2022-10-30T05:23:21.187Z,14.20
2022-10-30T05:25:49.672Z,14.20
2022-10-30T05:28:18.237Z,14.10
2022-10-30T05:30:55.633Z,14.20
2022-10-30T05:33:41.793Z,14.10
2022-10-30T05:36:10.786Z,14.10
2022-10-30T05:38:39.139Z,14.10
2022-10-30T05:41:11.224Z,14.10
2022-10-30T05:43:39.926Z,14.10
2022-10-30T05:46:10.729Z,14.10
2022-10-30T05:48:39.557Z,14.00
2022-10-30T05:51:08.553Z,14.00
2022-10-30T05:53:39.046Z,14.00
2022-10-30T05:56:08.018Z,14.00
2022-10-30T05:58:37.651Z,14.00
2022-10-30T06:01:08.235Z,14.00
2022-10-30T06:03:44.002Z,13.90
2022-10-30T06:06:13.599Z,14.00
2022-10-30T06:08:42.078Z,14.00
2022-10-30T06:12:02.951Z,14.00
2022-10-30T06:14:45.169Z,13.90
2022-10-30T06:17:14.475Z,13.90
2022-10-30T06:19:58.577Z,13.80
2022-10-30T06:22:57.107Z,13.80
2022-10-30T06:25:29.487Z,13.80
2022-10-30T06:28:36.393Z,13.70
2022-10-30T06:31:06.321Z,13.70
2022-10-30T06:33:35.717Z,13.70
2022-10-30T06:36:06.523Z,13.70
2022-10-30T06:38:35.301Z,13.70
2022-10-30T06:41:03.973Z,13.70
2022-10-30T06:43:51.435Z,13.70
2022-10-30T22:31:05.596Z,12.90
2022-10-30T22:33:34.545Z,12.90
2022-10-30T22:36:05.398Z,12.90
2022-10-30T22:38:34.153Z,12.90
2022-10-30T22:41:13.135Z,12.90
2022-10-30T22:43:42.089Z,12.90
2022-10-30T22:46:12.537Z,12.90
2022-10-30T22:48:40.997Z,12.90
2022-10-30T22:51:15.602Z,12.90
2022-10-30T22:53:46.331Z,12.90
2022-10-30T22:56:17.396Z,12.90
2022-10-30T22:58:46.726Z,12.90
2022-10-30T23:01:18.552Z,12.90
2022-10-30T23:03:47.755Z,12.90
2022-10-30T23:06:16.188Z,12.90
2022-10-30T23:08:44.624Z,12.90
2022-10-30T23:11:13.218Z,12.90
2022-10-30T23:13:41.894Z,12.90
2022-10-30T23:16:17.628Z,12.90
2022-10-30T23:18:46.465Z,12.80
2022-10-30T23:21:17.472Z,12.90
2022-10-30T23:23:46.363Z,12.90
2022-10-30T23:26:18.912Z,12.80
2022-10-30T23:28:49.591Z,12.80
2022-10-30T23:31:22.067Z,12.80
2022-10-30T23:33:52.385Z,12.80
2022-10-30T23:36:21.511Z,12.80
2022-10-30T23:38:53.037Z,12.80
2022-10-30T23:41:21.872Z,12.80
2022-10-30T23:43:53.713Z,12.80
2022-10-30T23:46:27.048Z,12.80
2022-10-30T23:48:55.857Z,12.80
2022-10-30T23:51:29.208Z,12.80
2022-10-30T23:53:58.220Z,12.80
2022-10-30T23:56:27.104Z,12.80
2022-10-30T23:58:55.611Z,12.80
